»·PEaware :: N390AB KPSP-KLAS

N390AB :: KPSP-KLAS

FLIGHT INFORMATION

Flight Status: Arrived
Operator: Privately registered:
United States
More flights under this callsign
Pilot: Sanjiv S. (4490)
Aircraft: SOCATA TBM-900
(TBM9)
More flights by this aircraft type
Origin: KPSP Palm Springs Intl
United States
Destination: KLAS McCarran Intl
United States
More flights between these airports :: More routes between these airports
Route: +CATH1 PSP V370 TNP V538 CRESO CRESO4
File this flight plan on PilotEdge
Remarks:
Altitude:
(Current/Filed)
23,000ft
Speed:
(Current/Filed)
270kts
Departed: 08-Nov-18 09:15 AM
Arrived: 08-Nov-18 10:11 AM
Distance/Time
Traveled:
151nm/0:56
Distance/Time
To Go:
Arrived

Flight Plot

Page will automatically refresh every two minutes.

Flight plan parsing failed; only flown route is shown


Map Options




Map Legend


Flown Route
Filed Route
Departure Airport
Arrival Airport
Navaid (VOR, NDB)
Fix

Horizontal Profiles

Position Reports

Time Latitude Longitude Heading Altitude Ground
Speed
08-Nov-18 08:37 33.825352 -116.509542 90 480ft 0kts
08-Nov-18 08:38 33.825352 -116.509542 90 480ft 0kts
08-Nov-18 08:39 33.825352 -116.509542 90 480ft 0kts
08-Nov-18 08:40 33.825352 -116.509542 90 480ft 0kts
08-Nov-18 08:41 33.825352 -116.509542 90 480ft 0kts
08-Nov-18 08:42 33.825352 -116.509542 90 480ft 0kts
08-Nov-18 08:43 33.825352 -116.509542 90 480ft 0kts
08-Nov-18 08:44 33.825352 -116.509542 90 480ft 0kts
08-Nov-18 08:45 33.825352 -116.509542 90 480ft 0kts
08-Nov-18 08:46 33.825352 -116.509542 90 480ft 0kts
08-Nov-18 08:47 33.825352 -116.509542 90 480ft 0kts
08-Nov-18 08:48 33.825352 -116.509542 90 480ft 0kts
08-Nov-18 08:49 33.825352 -116.509542 90 480ft 0kts
08-Nov-18 08:50 33.825352 -116.509542 90 480ft 0kts
08-Nov-18 08:51 33.825352 -116.509542 90 480ft 0kts
08-Nov-18 08:52 33.825352 -116.509542 90 480ft 0kts
08-Nov-18 08:53 33.825352 -116.509542 90 480ft 0kts
08-Nov-18 08:54 33.825352 -116.509542 90 480ft 0kts
08-Nov-18 08:55 33.825352 -116.509542 90 480ft 0kts
08-Nov-18 08:56 33.825352 -116.509542 90 480ft 0kts
08-Nov-18 08:57 33.825352 -116.509542 90 480ft 0kts
08-Nov-18 08:58 33.825352 -116.509542 90 480ft 0kts
08-Nov-18 08:59 33.825352 -116.509542 90 480ft 0kts
08-Nov-18 09:00 33.825352 -116.509542 90 480ft 0kts
08-Nov-18 09:01 33.825352 -116.509542 90 480ft 0kts
08-Nov-18 09:02 33.825352 -116.509542 90 480ft 0kts
08-Nov-18 09:03 33.825352 -116.509542 90 480ft 0kts
08-Nov-18 09:04 33.825352 -116.509542 90 480ft 0kts
08-Nov-18 09:05 33.825352 -116.509542 90 480ft 0kts
08-Nov-18 09:06 33.825352 -116.509542 90 480ft 0kts
08-Nov-18 09:07 33.825352 -116.509542 90 480ft 0kts
08-Nov-18 09:08 33.825352 -116.509542 90 480ft 0kts
08-Nov-18 09:09 33.825352 -116.509542 90 480ft 0kts
08-Nov-18 09:10 33.825352 -116.509542 90 480ft 0kts
08-Nov-18 09:11 33.825375 -116.508434 91 480ft 13kts
08-Nov-18 09:12 33.824388 -116.504973 144 480ft 12kts
08-Nov-18 09:13 33.820830 -116.501820 143 480ft 18kts
08-Nov-18 09:14 33.818536 -116.498874 85 480ft 0kts
08-Nov-18 09:15 33.818536 -116.498874 85 480ft 0kts
08-Nov-18 09:16 33.818597 -116.498388 71 480ft 7kts
08-Nov-18 09:17 33.819190 -116.498344 320 480ft 5kts
08-Nov-18 09:18 33.826293 -116.504256 336 490ft 98kts
08-Nov-18 09:19 33.841584 -116.518949 322 1011ft 152kts
08-Nov-18 09:20 33.862889 -116.540141 322 1959ft 167kts
08-Nov-18 09:21 33.884409 -116.560878 322 2855ft 171kts
08-Nov-18 09:22 33.911313 -116.548884 89 4082ft 176kts
08-Nov-18 09:23 33.895069 -116.495851 111 5631ft 174kts
08-Nov-18 09:24 33.876408 -116.446594 112 7085ft 191kts
08-Nov-18 09:25 33.857509 -116.400361 115 8366ft 199kts
08-Nov-18 09:26 33.845430 -116.354074 61 9557ft 197kts
08-Nov-18 09:27 33.867947 -116.310578 56 10829ft 196kts
08-Nov-18 09:28 33.889099 -116.265216 57 12072ft 199kts
08-Nov-18 09:29 33.909504 -116.220318 57 13285ft 197kts
08-Nov-18 09:30 33.931908 -116.170832 56 14632ft 195kts
08-Nov-18 09:31 33.957014 -116.115293 55 16161ft 194kts
08-Nov-18 09:32 33.983994 -116.055534 55 17910ft 221kts
08-Nov-18 09:33 34.012769 -115.991613 55 19652ft 230kts
08-Nov-18 09:34 34.042468 -115.925529 54 21385ft 231kts
08-Nov-18 09:35 34.071769 -115.860285 54 22874ft 239kts
08-Nov-18 09:36 34.103462 -115.789630 55 23227ft 280kts
08-Nov-18 09:37 34.151599 -115.725698 35 23221ft 292kts
08-Nov-18 09:38 34.205595 -115.665087 35 23216ft 300kts
08-Nov-18 09:39 34.261814 -115.601789 35 23215ft 303kts
08-Nov-18 09:40 34.319529 -115.536697 35 23215ft 304kts
08-Nov-18 09:41 34.389010 -115.502053 11 23215ft 288kts
08-Nov-18 09:42 34.461315 -115.470650 11 23215ft 288kts
08-Nov-18 09:43 34.532968 -115.439429 11 23188ft 289kts
08-Nov-18 09:44 34.604849 -115.408038 11 23192ft 289kts
08-Nov-18 09:45 34.677008 -115.376480 11 23171ft 290kts
08-Nov-18 09:46 34.745831 -115.346315 11 23146ft 289kts
08-Nov-18 09:47 34.818260 -115.314518 11 23143ft 288kts
08-Nov-18 09:48 34.887485 -115.284065 11 23144ft 288kts
08-Nov-18 09:49 34.956155 -115.253815 12 21933ft 300kts
08-Nov-18 09:50 35.021083 -115.225149 12 20554ft 285kts
08-Nov-18 09:51 35.080443 -115.198900 12 19600ft 269kts
08-Nov-18 09:52 35.135730 -115.176357 357 18394ft 262kts
08-Nov-18 09:53 35.198161 -115.175298 356 17129ft 260kts
08-Nov-18 09:54 35.260506 -115.174228 356 16064ft 267kts
08-Nov-18 09:55 35.325567 -115.173087 357 15135ft 275kts
08-Nov-18 09:56 35.389762 -115.171966 357 14222ft 277kts
08-Nov-18 09:57 35.454539 -115.170834 358 13300ft 278kts
08-Nov-18 09:58 35.520049 -115.169688 358 12367ft 278kts
08-Nov-18 09:59 35.586969 -115.168513 358 11412ft 278kts
08-Nov-18 10:00 35.652223 -115.167351 359 10466ft 263kts
08-Nov-18 10:01 35.703490 -115.183671 298 9794ft 234kts
08-Nov-18 10:02 35.723825 -115.252849 292 8641ft 239kts
08-Nov-18 10:03 35.766405 -115.294731 1 7916ft 246kts
08-Nov-18 10:04 35.825916 -115.292354 1 6991ft 226kts
08-Nov-18 10:05 35.869370 -115.267508 40 6992ft 198kts
08-Nov-18 10:06 35.904156 -115.231060 40 6993ft 191kts
08-Nov-18 10:07 35.938568 -115.197216 13 6461ft 171kts
08-Nov-18 10:08 35.972173 -115.199885 353 5002ft 132kts
08-Nov-18 10:09 36.004148 -115.202435 7 3769ft 128kts
08-Nov-18 10:10 36.030826 -115.196055 20 3107ft 87kts
08-Nov-18 10:11 36.049252 -115.185831 26 2594ft 83kts
08-Nov-18 10:12 36.065998 -115.175837 24 2303ft 80kts
08-Nov-18 10:13 36.080088 -115.167676 21 2114ft 51kts
08-Nov-18 10:14 36.083681 -115.165558 26 2114ft 18kts
08-Nov-18 10:15 36.088462 -115.162807 12 2114ft 18kts
08-Nov-18 10:16 36.089588 -115.165972 17 2114ft 0kts
08-Nov-18 10:17 36.089588 -115.165972 17 2114ft 0kts
08-Nov-18 10:18 36.089588 -115.165972 17 2114ft 0kts

Navigation Log

Ident Type
Flight plan parsing failed, navigation log unavailable